Valleyview, Canada
Current Conditions -  °F | °C
As of 9:00 PM on Tuesday 25 Nov 2014 (Local Time) from CYQU Reporting Station
Overcast Overcast  
Wind Chill: 10°   Ceiling: 8000
Heat Index: 10°   Visibility: 25mi
Dew Point:   Wind: 3mph
Humidity: 92%   Direction: 50°NE
Pressure: 30.14"   Gusts: NA
Location:  55.07°N, 117.28°W
Report Text: CYQU 260400Z 05003KT 25SM OVC080 M12/M13 A3014 RMK AC8 SLP260
Loading
Personal Weather Stations






























Interactive Weather Map New forecast layout! Learn more

10-Day Weather Forecast

Advertisements
Track Severe Weather on mobile